Time;durP1;ratioP1;P1;durP2;ratioP2;P2;SDS_P1;SDS_P2;PMS_P1;PMS_P2;Temp;Humidity;BMP_temperature;BMP_pressure;BME280_temperature;BME280_humidity;BME280_pressure;Samples;Min_cycle;Max_cycle;Signal;HPM_P1;HPM_P2
2022/07/31 00:02:19;;;;;;;5.20;3.22;;;;;;;29.36;37.60;98475.59;4982082;28;20085;-86
2022/07/31 00:04:44;;;;;;;4.63;3.45;;;;;;;29.33;38.05;98476.88;4998555;28;20026;-84
2022/07/31 00:07:10;;;;;;;4.65;3.53;;;;;;;29.36;38.00;98480.97;4997451;28;20042;-85
2022/07/31 00:09:36;;;;;;;4.38;3.20;;;;;;;29.35;37.66;98471.25;4981801;28;20095;-84
2022/07/31 00:12:02;;;;;;;5.30;3.58;;;;;;;29.27;37.57;98471.69;4982813;28;20026;-84
2022/07/31 00:14:28;;;;;;;6.47;3.30;;;;;;;29.23;37.61;98461.41;5015861;28;20026;-84
2022/07/31 00:16:53;;;;;;;5.25;3.53;;;;;;;29.21;37.83;98462.75;5015801;28;20479;-85
2022/07/31 00:19:19;;;;;;;7.68;3.67;;;;;;;29.24;37.79;98464.94;5015841;28;20030;-86
2022/07/31 00:21:44;;;;;;;7.65;3.50;;;;;;;29.25;37.60;98457.69;5015488;28;20038;-86
2022/07/31 00:24:10;;;;;;;6.20;3.83;;;;;;;29.25;37.59;98444.25;5015644;28;20037;-86
2022/07/31 00:26:36;;;;;;;8.50;3.20;;;;;;;29.20;37.27;98448.47;5015055;28;20056;-87
2022/07/31 00:29:02;;;;;;;5.60;3.28;;;;;;;29.07;37.73;98451.47;4998262;28;20022;-87
2022/07/31 00:31:27;;;;;;;5.60;3.40;;;;;;;28.99;37.91;98458.06;5015228;28;20107;-87
2022/07/31 00:33:52;;;;;;;5.38;3.65;;;;;;;28.97;37.78;98440.53;5015519;28;20040;-87
2022/07/31 00:36:18;;;;;;;5.22;3.50;;;;;;;28.96;38.16;98439.75;4998063;28;20041;-87
2022/07/31 00:38:43;;;;;;;5.65;3.60;;;;;;;28.92;38.09;98437.78;4965711;28;20058;-89
2022/07/31 00:41:09;;;;;;;7.78;3.80;;;;;;;28.94;38.15;98439.19;4997352;28;20049;-87
2022/07/31 00:43:34;;;;;;;5.80;3.58;;;;;;;28.96;38.35;98445.13;4981471;28;20022;-87
2022/07/31 00:46:00;;;;;;;5.90;3.45;;;;;;;28.99;38.16;98431.19;4997871;28;20409;-87
2022/07/31 00:48:26;;;;;;;4.75;3.42;;;;;;;29.03;38.08;98435.03;4998009;28;20030;-87
2022/07/31 00:50:51;;;;;;;4.28;3.20;;;;;;;29.00;38.44;98427.47;5014962;28;20469;-86
2022/07/31 00:53:17;;;;;;;5.03;3.35;;;;;;;29.07;38.19;98426.47;4996823;28;20041;-87
2022/07/31 00:55:42;;;;;;;4.35;3.25;;;;;;;29.08;38.31;98426.22;5015152;28;20041;-86
2022/07/31 00:58:08;;;;;;;7.40;3.17;;;;;;;29.08;38.47;98422.72;4996727;28;20065;-88
2022/07/31 01:00:33;;;;;;;5.60;3.33;;;;;;;29.03;38.57;98408.16;4997036;28;20057;-88
2022/07/31 01:02:59;;;;;;;8.38;3.72;;;;;;;29.01;38.59;98401.41;4996931;28;20061;-86
2022/07/31 01:05:24;;;;;;;4.55;3.40;;;;;;;29.07;38.48;98405.78;4964988;28;20025;-84
2022/07/31 01:07:50;;;;;;;5.45;3.10;;;;;;;29.14;38.22;98397.56;4996283;28;20053;-88
2022/07/31 01:10:24;;;;;;;4.95;3.05;;;;;;;29.10;38.52;98393.72;4997054;28;20037;-87
2022/07/31 01:12:58;;;;;;;3.95;3.15;;;;;;;29.06;38.51;98377.28;4981550;28;20076;-88
2022/07/31 01:15:23;;;;;;;4.43;2.97;;;;;;;29.07;38.80;98383.50;4980564;28;20125;-87
2022/07/31 01:17:49;;;;;;;4.30;2.90;;;;;;;29.10;38.54;98385.66;4980798;28;20120;-87
2022/07/31 01:20:14;;;;;;;5.13;3.20;;;;;;;29.07;38.88;98375.44;4964648;28;20034;-80
2022/07/31 01:22:55;;;;;;;5.43;3.08;;;;;;;29.03;38.99;98375.91;5014117;28;20030;-80
2022/07/31 01:25:58;;;;;;;5.68;3.42;;;;;;;29.01;39.03;98363.78;5014430;28;20164;-81
2022/07/31 01:28:47;;;;;;;3.60;3.00;;;;;;;28.96;39.01;98361.81;4980426;28;20483;-79
2022/07/31 01:31:15;;;;;;;8.20;3.15;;;;;;;28.96;39.22;98347.59;4980424;28;20122;-82
2022/07/31 01:33:52;;;;;;;3.15;2.85;;;;;;;28.94;39.26;98338.94;5014533;28;20034;-82
2022/07/31 01:36:23;;;;;;;5.03;3.05;;;;;;;28.98;39.44;98332.03;4995826;28;20034;-81
2022/07/31 01:38:50;;;;;;;4.40;2.95;;;;;;;29.01;39.43;98334.22;4980343;28;20032;-81
2022/07/31 01:41:16;;;;;;;4.00;3.00;;;;;;;29.00;39.61;98316.47;4996789;28;20088;-82
2022/07/31 01:43:44;;;;;;;3.67;2.60;;;;;;;29.03;39.21;98319.50;4980223;28;20037;-83
2022/07/31 01:46:11;;;;;;;4.50;3.00;;;;;;;28.94;39.61;98304.03;4996546;28;20112;-82
2022/07/31 01:48:37;;;;;;;4.50;3.28;;;;;;;28.83;39.31;98289.66;4964067;28;20041;-81
2022/07/31 01:51:02;;;;;;;4.55;2.97;;;;;;;28.83;39.46;98282.41;4980015;28;20183;-82
2022/07/31 01:53:31;;;;;;;3.72;3.03;;;;;;;28.85;39.43;98274.91;4996387;28;20037;-82
2022/07/31 01:55:57;;;;;;;7.10;3.13;;;;;;;28.88;39.55;98274.41;4996299;28;20030;-82
2022/07/31 01:58:24;;;;;;;3.92;3.00;;;;;;;28.85;39.21;98266.03;4979631;28;20117;-82
2022/07/31 02:00:50;;;;;;;3.45;2.90;;;;;;;28.90;39.18;98271.47;4963918;28;20021;-82
2022/07/31 02:03:16;;;;;;;3.75;3.00;;;;;;;28.93;39.10;98287.09;4979324;28;20076;-82
2022/07/31 02:05:41;;;;;;;5.00;3.25;;;;;;;28.95;39.00;98306.47;4979829;28;20081;-82
2022/07/31 02:08:07;;;;;;;7.63;3.20;;;;;;;28.97;39.06;98308.91;4979355;28;20540;-83
2022/07/31 02:10:32;;;;;;;4.65;3.25;;;;;;;28.94;38.82;98326.34;4995771;28;20485;-83
2022/07/31 02:12:58;;;;;;;7.63;3.35;;;;;;;28.99;38.76;98326.41;4995406;28;20065;-83
2022/07/31 02:15:24;;;;;;;5.60;3.20;;;;;;;29.07;38.56;98329.75;4979751;28;20080;-83
2022/07/31 02:17:49;;;;;;;4.05;3.08;;;;;;;29.10;38.59;98332.75;4962647;28;20494;-83
2022/07/31 02:20:15;;;;;;;6.78;3.50;;;;;;;29.11;38.19;98331.66;4962769;28;20038;-83
2022/07/31 02:22:40;;;;;;;4.15;3.00;;;;;;;29.15;37.80;98335.50;4995215;28;20030;-83
2022/07/31 02:25:06;;;;;;;4.57;3.40;;;;;;;29.14;37.99;98325.78;4979698;28;20100;-82
2022/07/31 02:27:31;;;;;;;7.10;3.63;;;;;;;29.17;37.77;98335.25;5012962;28;20456;-82
2022/07/31 02:29:59;;;;;;;4.53;3.75;;;;;;;29.15;37.79;98327.44;4979342;28;20394;-81
2022/07/31 02:32:25;;;;;;;3.88;3.22;;;;;;;29.15;37.48;98334.69;4979454;28;20120;-81
2022/07/31 02:34:50;;;;;;;7.40;3.58;;;;;;;29.20;37.66;98334.78;4979101;28;20034;-81
2022/07/31 02:37:16;;;;;;;7.28;3.33;;;;;;;29.23;37.67;98340.47;4979409;28;20408;-81
2022/07/31 02:39:41;;;;;;;7.43;3.55;;;;;;;29.22;37.43;98343.41;4996301;28;20481;-81
2022/07/31 02:42:07;;;;;;;8.43;3.85;;;;;;;29.27;37.35;98345.34;4963626;28;20064;-82
2022/07/31 02:44:33;;;;;;;4.50;3.33;;;;;;;29.20;37.60;98346.34;4995491;28;20107;-81
2022/07/31 02:47:01;;;;;;;7.85;3.58;;;;;;;29.04;37.88;98352.53;4995285;28;20037;-80
2022/07/31 02:49:27;;;;;;;5.72;3.55;;;;;;;28.80;38.42;98343.88;4979693;28;20037;-81
2022/07/31 02:51:54;;;;;;;7.85;3.90;;;;;;;28.79;38.54;98342.22;4979052;28;20042;-83
2022/07/31 02:54:20;;;;;;;7.93;3.85;;;;;;;28.84;38.68;98350.34;4979499;28;20026;-81
2022/07/31 02:56:45;;;;;;;5.68;3.88;;;;;;;28.75;39.00;98347.28;4978538;28;20139;-82
2022/07/31 02:59:10;;;;;;;8.18;3.90;;;;;;;28.81;39.23;98343.63;4979192;28;20050;-82
2022/07/31 03:01:36;;;;;;;6.47;3.63;;;;;;;28.82;38.94;98337.16;4994882;28;20038;-83
2022/07/31 03:04:02;;;;;;;4.50;3.50;;;;;;;28.91;38.89;98342.97;4994685;28;20054;-82
2022/07/31 03:06:27;;;;;;;6.15;3.65;;;;;;;28.96;39.03;98337.66;4962315;28;20497;-82
2022/07/31 03:08:52;;;;;;;5.32;3.90;;;;;;;29.03;39.00;98343.69;4994924;28;20096;-83
2022/07/31 03:11:18;;;;;;;8.57;3.97;;;;;;;29.06;39.23;98345.03;4995236;28;20057;-83
2022/07/31 03:13:44;;;;;;;5.95;3.50;;;;;;;29.07;39.23;98354.72;5012880;28;20470;-83
2022/07/31 03:16:10;;;;;;;5.57;3.72;;;;;;;29.10;39.32;98354.25;4979077;28;20378;-82
2022/07/31 03:18:36;;;;;;;5.03;4.00;;;;;;;28.97;39.25;98359.94;4959006;28;20037;-81
2022/07/31 03:21:02;;;;;;;7.05;3.78;;;;;;;29.09;39.41;98359.88;4991582;28;20030;-81
2022/07/31 03:23:34;;;;;;;8.43;3.65;;;;;;;29.22;39.07;98368.44;4975368;28;20136;-81
2022/07/31 03:26:00;;;;;;;5.13;3.42;;;;;;;29.28;38.60;98355.06;4959594;28;20473;-80
2022/07/31 03:28:25;;;;;;;4.43;3.55;;;;;;;29.38;38.54;98377.50;4959465;28;20097;-80
2022/07/31 03:30:51;;;;;;;4.85;3.30;;;;;;;29.39;38.86;98373.75;4975626;28;20097;-80
2022/07/31 03:33:17;;;;;;;4.80;3.60;;;;;;;29.34;38.64;98372.88;4975434;28;20031;-79
2022/07/31 03:35:42;;;;;;;7.40;3.85;;;;;;;29.24;39.19;98368.19;4975308;28;20035;-80
2022/07/31 03:38:08;;;;;;;7.50;3.75;;;;;;;29.30;39.09;98371.72;4959353;28;20034;-79
2022/07/31 03:40:33;;;;;;;8.40;3.38;;;;;;;29.28;38.94;98379.25;4992541;28;20038;-79
2022/07/31 03:42:59;;;;;;;5.43;3.20;;;;;;;29.03;39.59;98375.09;4991833;28;20034;-81
2022/07/31 03:45:25;;;;;;;4.88;3.58;;;;;;;28.91;39.72;98380.56;4975259;28;20031;-81
2022/07/31 03:47:50;;;;;;;5.13;3.38;;;;;;;28.86;39.88;98383.16;4975846;28;20041;-81
2022/07/31 03:50:16;;;;;;;5.05;3.90;;;;;;;28.72;40.56;98382.69;4992588;28;20390;-81
2022/07/31 03:52:43;;;;;;;5.93;4.03;;;;;;;28.70;40.63;98390.16;4958939;28;20504;-80
2022/07/31 03:55:08;;;;;;;6.63;3.80;;;;;;;28.68;40.71;98376.97;4982840;28;20032;-80
2022/07/31 03:57:34;;;;;;;4.65;3.90;;;;;;;28.76;40.74;98381.13;4978568;28;20045;-80
2022/07/31 04:00:01;;;;;;;5.88;3.85;;;;;;;28.76;40.76;98383.81;4980305;28;20474;-81
2022/07/31 04:02:27;;;;;;;6.22;3.78;;;;;;;28.75;40.92;98382.19;4998583;28;20094;-85
2022/07/31 04:04:53;;;;;;;5.72;4.00;;;;;;;28.72;41.42;98384.53;4965832;28;20100;-84
2022/07/31 04:07:18;;;;;;;8.82;4.22;;;;;;;28.71;41.29;98385.63;5015584;28;20465;-84
2022/07/31 04:09:44;;;;;;;7.13;4.05;;;;;;;28.68;40.79;98384.22;4998349;28;20045;-84
2022/07/31 04:12:09;;;;;;;7.75;3.80;;;;;;;28.66;41.04;98384.47;4982281;28;20061;-84
2022/07/31 04:14:35;;;;;;;6.90;3.22;;;;;;;28.66;40.86;98379.09;4982723;28;20161;-84
2022/07/31 04:17:00;;;;;;;4.97;3.45;;;;;;;28.66;40.79;98364.84;4981768;28;20042;-85
2022/07/31 04:19:29;;;;;;;3.97;3.30;;;;;;;28.66;40.70;98373.72;4981906;28;20038;-85
2022/07/31 04:21:58;;;;;;;6.13;3.63;;;;;;;28.63;40.65;98368.03;5015750;28;20026;-84
2022/07/31 04:24:24;;;;;;;3.45;3.15;;;;;;;28.60;40.59;98368.50;4982645;28;20046;-84
2022/07/31 04:26:50;;;;;;;4.25;3.03;;;;;;;28.55;40.60;98357.66;4982105;28;20041;-83
2022/07/31 04:29:16;;;;;;;6.65;3.90;;;;;;;28.58;40.72;98371.44;4966237;28;20137;-83
2022/07/31 04:31:41;;;;;;;5.45;3.78;;;;;;;28.52;40.62;98367.81;4997662;28;20034;-85
2022/07/31 04:34:07;;;;;;;4.88;3.63;;;;;;;28.50;40.93;98366.44;5015298;28;20040;-84
2022/07/31 04:36:32;;;;;;;4.70;3.65;;;;;;;28.54;40.63;98372.94;4965316;28;20026;-84
2022/07/31 04:38:58;;;;;;;5.97;3.47;;;;;;;28.57;40.54;98364.41;4997998;28;20033;-83
2022/07/31 04:41:24;;;;;;;7.35;3.50;;;;;;;28.56;40.65;98362.81;4981436;28;20030;-83
2022/07/31 04:43:49;;;;;;;4.95;3.30;;;;;;;28.54;40.66;98358.72;4981313;28;20066;-85
2022/07/31 04:46:15;;;;;;;4.30;3.08;;;;;;;28.61;40.40;98357.53;4981797;28;20026;-84
2022/07/31 04:48:41;;;;;;;5.18;3.40;;;;;;;28.68;40.27;98362.72;4965041;28;20034;-84
2022/07/31 04:51:06;;;;;;;4.53;3.50;;;;;;;28.65;40.29;98361.34;4997970;28;20029;-81
2022/07/31 04:53:32;;;;;;;4.90;3.47;;;;;;;28.68;40.22;98358.16;4981182;28;20070;-82
2022/07/31 04:58:41;;;;;;;4.28;3.38;;;;;;;28.87;39.97;98364.09;4987047;28;20187;-82
2022/07/31 05:01:07;;;;;;;3.72;3.05;;;;;;;28.93;39.69;98367.69;4997303;28;20132;-82
2022/07/31 05:03:32;;;;;;;6.28;3.53;;;;;;;28.98;39.53;98377.69;4965263;28;20045;-82
2022/07/31 05:06:10;;;;;;;6.55;3.67;;;;;;;29.02;39.00;98376.16;4978766;28;20047;-91
2022/07/31 05:08:36;;;;;;;4.85;3.47;;;;;;;29.74;37.61;98377.13;4965853;28;20121;-88
2022/07/31 05:13:56;;;;;;;3.50;3.20;;;;;;;29.84;37.96;98388.06;5000454;28;20037;-88
2022/07/31 05:16:22;;;;;;;7.18;3.38;;;;;;;29.96;37.07;98385.22;4966032;28;20038;-86
2022/07/31 05:18:47;;;;;;;20.38;3.70;;;;;;;30.40;36.96;98389.75;4982128;28;20038;-88
2022/07/31 05:21:13;;;;;;;27.63;3.63;;;;;;;32.40;33.65;98385.47;4979108;28;20493;-82
2022/07/31 05:23:39;;;;;;;12.07;2.97;;;;;;;33.93;30.90;98384.69;4977079;28;20098;-75
2022/07/31 05:26:05;;;;;;;17.05;4.20;;;;;;;35.43;28.31;98393.28;4993522;28;20069;-77
2022/07/31 05:28:30;;;;;;;11.23;2.78;;;;;;;36.70;26.58;98394.56;4974672;28;20069;-79
2022/07/31 05:30:56;;;;;;;6.80;2.50;;;;;;;37.97;25.00;98389.72;4987831;28;20528;-79
2022/07/31 05:33:22;;;;;;;8.35;2.58;;;;;;;39.00;23.71;98381.84;4980357;28;20120;-81
2022/07/31 05:35:48;;;;;;;6.30;2.53;;;;;;;39.99;22.50;98392.50;4996448;28;20038;-80
2022/07/31 05:38:19;;;;;;;10.90;2.53;;;;;;;40.83;21.13;98393.13;4980146;28;20410;-81
2022/07/31 05:40:47;;;;;;;5.18;2.22;;;;;;;41.62;20.18;98387.31;5020014;28;20026;-84
2022/07/31 05:43:17;;;;;;;8.90;2.38;;;;;;;42.26;19.78;98396.44;5015068;28;20478;-82
2022/07/31 05:45:43;;;;;;;13.77;2.20;;;;;;;42.93;19.04;98397.25;5011319;28;20493;-81
2022/07/31 05:48:08;;;;;;;3.28;1.80;;;;;;;43.56;18.58;98409.91;4980450;28;20108;-80
2022/07/31 05:50:34;;;;;;;5.27;1.83;;;;;;;44.18;17.85;98409.81;5012003;28;20552;-80
2022/07/31 05:52:59;;;;;;;5.53;1.90;;;;;;;44.65;17.04;98403.72;4995028;28;20042;-81
2022/07/31 05:55:25;;;;;;;4.07;1.70;;;;;;;45.06;16.82;98400.84;4995678;28;20555;-81
2022/07/31 05:57:51;;;;;;;7.17;1.90;;;;;;;45.39;16.80;98394.16;4977913;28;20091;-86
2022/07/31 06:00:17;;;;;;;4.33;1.77;;;;;;;45.74;15.94;98399.72;4978239;28;20247;-83
2022/07/31 06:02:43;;;;;;;5.20;1.75;;;;;;;46.07;16.00;98390.19;4994338;28;20132;-82
2022/07/31 06:05:08;;;;;;;6.13;1.60;;;;;;;46.39;15.33;98401.09;4978194;28;20101;-85
2022/07/31 06:07:34;;;;;;;5.67;1.83;;;;;;;46.64;15.41;98395.25;4994426;28;20493;-83
2022/07/31 06:10:00;;;;;;;3.43;1.50;;;;;;;46.56;15.33;98386.88;4977166;28;20458;-85
2022/07/31 06:12:26;;;;;;;3.10;1.45;;;;;;;46.29;15.43;98391.47;4991071;28;20103;-82
2022/07/31 06:14:51;;;;;;;2.90;1.50;;;;;;;46.04;15.22;98388.94;4991273;28;20042;-81
2022/07/31 06:17:17;;;;;;;2.20;1.43;;;;;;;46.33;14.85;98383.25;4988827;28;20420;-77
2022/07/31 06:19:42;;;;;;;2.87;1.40;;;;;;;46.47;14.69;98386.25;4989388;28;20129;-79
2022/07/31 06:22:08;;;;;;;6.23;1.50;;;;;;;46.71;14.54;98387.13;4991705;28;20029;-77
2022/07/31 06:24:33;;;;;;;3.93;1.50;;;;;;;46.36;15.13;98388.03;4988578;28;20085;-79
2022/07/31 06:26:59;;;;;;;3.10;1.47;;;;;;;45.84;15.14;98371.59;4996032;28;20489;-80
2022/07/31 06:29:26;;;;;;;3.10;1.40;;;;;;;46.04;14.99;98385.41;4977160;28;20050;-78
2022/07/31 06:31:52;;;;;;;4.10;1.27;;;;;;;46.65;14.61;98383.06;4977033;28;20748;-78
2022/07/31 06:34:18;;;;;;;4.80;1.25;;;;;;;46.89;14.14;98384.66;5009940;28;20026;-79
2022/07/31 06:36:44;;;;;;;2.63;1.30;;;;;;;47.08;14.27;98375.53;4960124;28;20026;-84
2022/07/31 06:39:09;;;;;;;3.43;1.40;;;;;;;47.32;13.92;98379.91;4965204;28;20049;-85
2022/07/31 06:41:43;;;;;;;3.20;1.40;;;;;;;47.68;13.71;98382.38;4965063;28;20036;-88
2022/07/31 06:44:09;;;;;;;4.78;1.30;;;;;;;48.08;13.37;98380.94;4994223;28;20074;-84
2022/07/31 06:46:36;;;;;;;12.82;1.70;;;;;;;48.43;12.69;98379.78;4976914;28;20056;-84
2022/07/31 06:49:01;;;;;;;5.83;1.43;;;;;;;47.98;13.55;98377.66;4993205;28;20481;-85
2022/07/31 06:51:27;;;;;;;3.03;1.30;;;;;;;46.87;13.92;98375.94;4960203;28;20590;-82
2022/07/31 06:53:52;;;;;;;3.43;1.73;;;;;;;46.07;14.40;98381.09;5010037;28;20034;-82
2022/07/31 06:56:18;;;;;;;5.03;1.73;;;;;;;45.46;15.23;98381.38;4976844;28;20045;-83
2022/07/31 06:58:43;;;;;;;3.10;1.37;;;;;;;45.00;15.51;98389.28;4959631;28;20077;-85
2022/07/31 07:01:09;;;;;;;6.80;1.40;;;;;;;44.49;15.94;98389.06;4960000;28;20378;-82
2022/07/31 07:03:34;;;;;;;2.90;1.50;;;;;;;44.00;16.62;98384.56;4960155;28;20046;-81
2022/07/31 07:06:02;;;;;;;3.53;1.63;;;;;;;43.54;16.99;98385.53;4960693;28;20038;-85
2022/07/31 07:08:28;;;;;;;2.92;1.45;;;;;;;42.99;17.60;98382.19;4992377;28;20105;-85
2022/07/31 07:10:53;;;;;;;4.00;1.87;;;;;;;42.47;17.58;98372.50;4976834;28;20060;-86
2022/07/31 07:13:19;;;;;;;2.70;1.70;;;;;;;42.11;18.44;98376.72;4991719;28;20033;-82
2022/07/31 07:15:44;;;;;;;2.25;1.45;;;;;;;41.81;18.34;98383.38;4975952;28;20037;-83
2022/07/31 07:18:10;;;;;;;2.23;1.70;;;;;;;41.50;18.63;98371.63;4991779;28;20026;-81
2022/07/31 07:20:36;;;;;;;5.15;2.20;;;;;;;41.63;18.93;98377.19;4992339;28;20045;-84
2022/07/31 07:23:02;;;;;;;2.57;1.80;;;;;;;42.22;18.10;98371.63;4976172;28;20558;-84
2022/07/31 07:25:27;;;;;;;6.28;1.92;;;;;;;42.93;17.63;98377.22;4975182;28;20046;-85
2022/07/31 07:27:53;;;;;;;3.08;1.67;;;;;;;43.61;16.65;98367.66;4993083;28;20042;-81
2022/07/31 07:30:18;;;;;;;5.23;1.83;;;;;;;43.76;16.54;98369.72;5009091;28;20521;-82
2022/07/31 07:32:44;;;;;;;2.77;1.90;;;;;;;43.23;17.19;98375.09;4977467;28;20060;-89
2022/07/31 07:35:11;;;;;;;2.30;1.60;;;;;;;43.10;17.47;98373.50;4960221;28;20478;-76
2022/07/31 07:37:38;;;;;;;3.60;1.70;;;;;;;43.39;17.05;98377.19;4996815;28;20042;-81
2022/07/31 07:40:05;;;;;;;2.40;1.60;;;;;;;42.99;17.44;98376.69;4979014;28;20053;-83
2022/07/31 07:42:31;;;;;;;2.05;1.52;;;;;;;42.64;17.47;98371.56;4980605;28;20440;-82
2022/07/31 07:44:57;;;;;;;4.00;1.70;;;;;;;42.30;17.95;98365.28;4964300;28;20038;-79
2022/07/31 07:47:23;;;;;;;1.73;1.25;;;;;;;42.09;18.33;98369.94;4979180;28;20778;-79
2022/07/31 07:49:49;;;;;;;2.47;1.60;;;;;;;41.85;18.35;98374.16;4979438;28;20026;-78
2022/07/31 07:52:14;;;;;;;3.63;1.60;;;;;;;41.62;18.49;98364.63;4962180;28;20068;-84
2022/07/31 07:54:41;;;;;;;2.80;1.33;;;;;;;41.49;18.41;98361.00;4978845;28;20073;-77
2022/07/31 07:57:08;;;;;;;2.42;1.55;;;;;;;42.04;18.20;98365.47;4979098;28;20029;-78
2022/07/31 07:59:34;;;;;;;2.38;1.52;;;;;;;42.42;17.55;98366.47;4979212;28;20155;-78
2022/07/31 08:01:59;;;;;;;6.63;1.77;;;;;;;42.89;17.88;98362.56;4978294;28;20037;-76
2022/07/31 08:04:25;;;;;;;2.40;1.40;;;;;;;43.27;17.24;98366.97;5013318;28;20046;-76
2022/07/31 08:06:51;;;;;;;5.63;1.53;;;;;;;43.66;16.72;98367.44;4962122;28;20034;-75
2022/07/31 08:09:16;;;;;;;13.07;2.10;;;;;;;43.99;17.23;98369.22;4995820;28;20029;-74
2022/07/31 08:11:42;;;;;;;10.90;2.10;;;;;;;44.08;17.29;98358.88;4992652;28;20042;-73
2022/07/31 08:14:08;;;;;;;4.83;1.60;;;;;;;44.40;16.76;98375.50;4961272;28;20029;-74
2022/07/31 08:16:33;;;;;;;6.00;1.70;;;;;;;44.73;16.51;98374.44;4994857;28;20041;-75
2022/07/31 08:18:59;;;;;;;4.17;1.47;;;;;;;45.00;16.17;98367.25;4977664;28;20141;-74
2022/07/31 08:21:25;;;;;;;8.43;1.43;;;;;;;45.20;16.02;98361.81;4979146;28;20037;-74
2022/07/31 08:23:51;;;;;;;5.07;1.43;;;;;;;45.34;16.26;98351.94;4995144;28;20037;-74
2022/07/31 08:26:17;;;;;;;3.50;1.58;;;;;;;45.50;15.79;98342.88;4995316;28;20453;-73
2022/07/31 08:28:42;;;;;;;3.07;1.20;;;;;;;45.63;15.80;98351.81;4976062;28;20109;-74
2022/07/31 08:31:10;;;;;;;3.57;1.40;;;;;;;45.68;15.42;98343.25;4979039;28;20018;-76
2022/07/31 08:33:35;;;;;;;3.95;1.25;;;;;;;45.72;15.16;98346.88;4978672;28;20025;-76
2022/07/31 08:36:01;;;;;;;1.97;1.20;;;;;;;45.64;15.04;98343.19;4962981;28;20056;-72
2022/07/31 08:38:27;;;;;;;3.00;1.20;;;;;;;45.35;14.93;98347.22;4961896;28;20065;-73
2022/07/31 08:40:53;;;;;;;2.88;1.00;;;;;;;44.80;15.64;98345.13;5012862;28;20038;-73
2022/07/31 08:43:18;;;;;;;1.97;1.10;;;;;;;44.93;15.06;98347.78;5012365;28;20106;-75
2022/07/31 08:45:44;;;;;;;1.33;1.00;;;;;;;44.94;14.47;98349.38;4964189;28;20065;-83
2022/07/31 08:48:09;;;;;;;2.70;1.03;;;;;;;44.64;15.37;98352.56;4996140;28;20022;-83
2022/07/31 08:50:37;;;;;;;1.83;1.20;;;;;;;44.08;15.78;98351.41;4980033;28;20045;-86
2022/07/31 08:53:03;;;;;;;2.17;1.20;;;;;;;43.65;15.86;98335.59;4963695;28;20061;-78
2022/07/31 08:55:29;;;;;;;1.50;1.03;;;;;;;43.44;16.01;98342.03;4962288;28;20072;-74
2022/07/31 08:57:54;;;;;;;2.87;1.10;;;;;;;43.12;16.40;98338.25;4963115;28;20050;-82
2022/07/31 09:00:21;;;;;;;3.10;1.30;;;;;;;42.79;16.67;98336.38;4962733;28;20156;-74
2022/07/31 09:02:47;;;;;;;1.50;1.10;;;;;;;42.56;16.79;98342.28;4978960;28;20052;-74
2022/07/31 09:05:12;;;;;;;2.93;1.23;;;;;;;42.47;16.91;98338.81;4975649;28;20030;-74
2022/07/31 09:07:39;;;;;;;2.90;1.13;;;;;;;42.14;17.14;98336.88;4976908;28;20132;-74
2022/07/31 09:10:33;;;;;;;2.50;1.53;;;;;;;42.08;17.13;98329.94;4977378;28;20041;-74
2022/07/31 09:12:59;;;;;;;1.50;1.10;;;;;;;42.35;16.92;98331.31;4937795;29;20148;-74
2022/07/31 09:15:26;;;;;;;1.60;1.20;;;;;;;42.55;17.14;98332.44;4953637;29;20504;-74
2022/07/31 09:17:52;;;;;;;2.83;1.20;;;;;;;42.52;17.15;98324.88;4937833;29;20066;-75
2022/07/31 09:20:26;;;;;;;3.17;1.17;;;;;;;42.69;16.90;98318.41;4921715;29;20483;-73
2022/07/31 09:23:01;;;;;;;4.30;1.25;;;;;;;42.92;16.81;98327.03;4921482;29;20471;-73
2022/07/31 09:25:27;;;;;;;1.50;1.10;;;;;;;42.61;17.04;98331.09;4906870;29;20051;-74
2022/07/31 09:27:59;;;;;;;2.40;1.30;;;;;;;42.42;17.28;98325.31;4921528;29;20110;-74
2022/07/31 09:30:24;;;;;;;2.33;1.30;;;;;;;42.23;17.45;98329.34;4938249;29;20135;-74
2022/07/31 09:32:50;;;;;;;2.65;1.40;;;;;;;42.02;17.72;98326.63;4953283;29;20031;-74
2022/07/31 09:35:15;;;;;;;1.35;1.20;;;;;;;41.80;17.72;98327.78;4953483;29;20039;-74
2022/07/31 09:37:44;;;;;;;5.15;1.30;;;;;;;41.56;18.10;98329.22;4936829;29;20039;-73
2022/07/31 09:40:10;;;;;;;1.98;1.35;;;;;;;41.31;18.47;98311.81;4921564;29;20483;-74
2022/07/31 09:42:47;;;;;;;2.05;1.30;;;;;;;41.11;18.57;98318.81;4953333;29;20179;-74
2022/07/31 09:45:24;;;;;;;2.60;1.40;;;;;;;40.84;18.72;98320.81;4938353;29;20042;-75
2022/07/31 09:48:07;;;;;;;2.80;1.60;;;;;;;40.51;18.95;98313.19;4922602;29;20039;-74
2022/07/31 09:50:32;;;;;;;1.80;1.20;;;;;;;40.30;19.09;98310.31;4960741;28;20061;-74
2022/07/31 09:52:59;;;;;;;3.92;1.40;;;;;;;40.11;19.38;98315.34;4976575;28;20573;-74
2022/07/31 09:55:25;;;;;;;4.93;1.23;;;;;;;39.97;19.54;98316.31;4992669;28;20026;-75
2022/07/31 09:57:51;;;;;;;2.65;1.50;;;;;;;39.79;19.10;98318.22;4975778;28;20108;-74
2022/07/31 10:00:17;;;;;;;2.30;1.25;;;;;;;39.65;19.68;98312.09;4992890;28;20108;-74
2022/07/31 10:02:42;;;;;;;2.25;1.50;;;;;;;39.60;19.55;98313.06;4992123;28;20142;-74
2022/07/31 10:05:10;;;;;;;3.00;1.52;;;;;;;39.84;19.40;98310.97;4976127;28;20031;-74
2022/07/31 10:07:35;;;;;;;;;;;;;;;40.03;18.79;98303.28;4960334;28;20473;-74
2022/07/31 10:10:02;;;;;;;2.37;1.43;;;;;;;40.09;19.16;98306.66;4993532;28;19920;-74
2022/07/31 10:12:28;;;;;;;2.65;1.50;;;;;;;40.17;19.01;98303.13;4992634;28;20034;-74
2022/07/31 10:14:54;;;;;;;1.80;1.50;;;;;;;40.12;19.36;98300.53;4992218;28;20429;-74
2022/07/31 10:17:23;;;;;;;2.60;1.40;;;;;;;40.15;19.19;98297.16;4976062;28;20026;-73
2022/07/31 10:19:49;;;;;;;1.92;1.38;;;;;;;40.16;19.30;98296.84;4975784;28;20512;-74
2022/07/31 10:22:17;;;;;;;1.73;1.40;;;;;;;40.19;18.86;98292.66;4959411;28;20038;-74
2022/07/31 10:24:46;;;;;;;3.15;1.50;;;;;;;40.33;18.56;98292.47;4992487;28;20046;-74
2022/07/31 10:27:12;;;;;;;2.10;1.35;;;;;;;40.28;18.93;98279.78;4975800;28;20084;-73
2022/07/31 10:29:40;;;;;;;2.45;1.35;;;;;;;40.10;18.75;98281.72;4975991;28;20030;-74
2022/07/31 10:32:06;;;;;;;3.20;1.65;;;;;;;39.93;18.92;98268.06;4959955;28;20489;-75
2022/07/31 10:34:33;;;;;;;2.73;1.37;;;;;;;39.85;19.42;98274.34;4975929;28;20412;-74
2022/07/31 10:37:02;;;;;;;2.23;1.40;;;;;;;39.73;19.77;98275.78;4991969;28;20034;-75
2022/07/31 10:39:37;;;;;;;3.90;1.48;;;;;;;39.67;19.73;98270.81;4991901;28;20026;-74
2022/07/31 10:42:22;;;;;;;3.95;1.40;;;;;;;39.75;19.13;98273.53;4992072;28;20414;-74
2022/07/31 10:45:02;;;;;;;1.73;1.35;;;;;;;39.77;19.19;98273.22;4993296;28;20486;-74
2022/07/31 10:47:28;;;;;;;2.63;1.60;;;;;;;39.68;19.09;98275.97;4976236;28;20030;-74
2022/07/31 10:49:53;;;;;;;2.67;1.45;;;;;;;39.60;19.07;98269.38;4959501;28;20500;-74
2022/07/31 10:52:29;;;;;;;1.88;1.50;;;;;;;39.54;18.65;98267.13;4991959;28;20045;-75
2022/07/31 10:54:57;;;;;;;3.25;1.50;;;;;;;39.45;18.82;98264.34;4991941;28;20058;-73
2022/07/31 10:57:27;;;;;;;3.38;1.40;;;;;;;39.35;19.23;98264.66;4975717;28;20036;-75
2022/07/31 10:59:52;;;;;;;2.47;1.60;;;;;;;39.22;19.37;98263.66;4992195;28;20118;-73
2022/07/31 11:02:28;;;;;;;2.25;1.50;;;;;;;39.08;19.65;98259.13;4959156;28;20038;-74
2022/07/31 11:04:53;;;;;;;1.90;1.30;;;;;;;38.96;19.50;98260.84;4991583;28;20038;-74
2022/07/31 11:07:21;;;;;;;3.28;1.50;;;;;;;38.75;19.80;98261.41;4975483;28;20034;-74
2022/07/31 11:09:47;;;;;;;3.42;1.50;;;;;;;38.58;20.08;98264.81;4961493;28;20066;-75
2022/07/31 11:12:19;;;;;;;5.22;1.60;;;;;;;38.35;20.83;98289.41;4979437;28;20461;-74
2022/07/31 11:14:44;;;;;;;13.50;2.20;;;;;;;38.09;22.46;98316.44;4979643;28;20531;-74
2022/07/31 11:17:10;;;;;;;15.48;2.70;;;;;;;37.86;24.89;98322.97;4962914;28;20141;-74
2022/07/31 11:19:39;;;;;;;16.10;2.92;;;;;;;37.54;26.74;98317.38;4963036;28;20034;-75
2022/07/31 11:22:12;;;;;;;18.45;3.72;;;;;;;37.16;28.58;98320.31;4979007;28;20038;-73
2022/07/31 11:24:38;;;;;;;20.10;4.75;;;;;;;36.88;29.89;98317.59;4979803;28;20113;-74
2022/07/31 11:27:04;;;;;;;14.77;4.10;;;;;;;36.62;30.51;98308.25;4979071;28;20053;-74
2022/07/31 11:29:31;;;;;;;15.13;4.20;;;;;;;36.37;31.26;98307.56;4979312;28;20030;-74
2022/07/31 11:32:16;;;;;;;15.52;4.43;;;;;;;36.14;32.61;98323.66;4978694;28;20042;-73
2022/07/31 11:34:46;;;;;;;17.35;4.03;;;;;;;35.93;33.67;98325.06;4978776;28;20062;-74
2022/07/31 11:37:16;;;;;;;14.77;3.92;;;;;;;35.76;34.09;98320.97;4962840;28;20133;-73
2022/07/31 11:39:42;;;;;;;11.40;3.72;;;;;;;35.63;34.75;98317.06;4995267;28;20117;-75